Time;durP1;ratioP1;P1;durP2;ratioP2;P2;SDS_P1;SDS_P2;PMS_P1;PMS_P2;Temp;Humidity;BMP_temperature;BMP_pressure;BME280_temperature;BME280_humidity;BME280_pressure;Samples;Min_cycle;Max_cycle;Signal;HPM_P1;HPM_P2
2023/05/20 00:01:05;;;;;;;6.63;2.17;;;;;15.90;98838.00;;;;5052169;28;20059;-67
2023/05/20 00:03:31;;;;;;;1.98;1.70;;;;;15.90;98834.00;;;;5035772;28;20144;-68
2023/05/20 00:05:58;;;;;;;3.40;1.70;;;;;15.90;98832.00;;;;5051840;28;20059;-68
2023/05/20 00:08:25;;;;;;;5.47;1.90;;;;;15.90;98842.00;;;;5052492;28;20041;-68
2023/05/20 00:10:51;;;;;;;2.15;1.80;;;;;15.80;98842.00;;;;5053358;28;20093;-68
2023/05/20 00:13:18;;;;;;;3.13;2.33;;;;;15.80;98839.00;;;;5052260;28;20124;-68
2023/05/20 00:15:44;;;;;;;3.08;1.70;;;;;15.80;98839.00;;;;5052603;28;20139;-68
2023/05/20 00:18:11;;;;;;;4.45;2.03;;;;;15.80;98832.00;;;;5053416;28;20041;-68
2023/05/20 00:20:38;;;;;;;4.15;2.05;;;;;15.80;98836.00;;;;5053554;28;20047;-68
2023/05/20 00:23:04;;;;;;;5.15;1.88;;;;;15.80;98830.00;;;;5053918;28;20045;-66
2023/05/20 00:25:31;;;;;;;2.58;2.05;;;;;15.80;98834.00;;;;5052547;28;20044;-68
2023/05/20 00:27:58;;;;;;;5.45;1.83;;;;;15.80;98830.00;;;;5053242;28;20069;-68
2023/05/20 00:30:25;;;;;;;3.50;2.22;;;;;15.80;98830.00;;;;5035043;28;20199;-65
2023/05/20 00:32:51;;;;;;;4.25;1.90;;;;;15.80;98834.00;;;;5054307;28;20049;-67
2023/05/20 00:35:18;;;;;;;4.25;2.78;;;;;15.70;98829.00;;;;5054353;28;20449;-67
2023/05/20 00:37:44;;;;;;;3.78;1.80;;;;;15.70;98825.00;;;;5053195;28;20056;-67
2023/05/20 00:40:11;;;;;;;3.17;2.10;;;;;15.70;98825.00;;;;5035868;28;20080;-67
2023/05/20 00:42:42;;;;;;;3.08;1.75;;;;;15.70;98823.00;;;;5055214;28;20041;-67
2023/05/20 00:45:09;;;;;;;3.47;2.13;;;;;15.70;98829.00;;;;5053565;28;20045;-67
2023/05/20 00:47:37;;;;;;;3.58;2.05;;;;;15.70;98830.00;;;;5054215;28;20048;-67
2023/05/20 00:50:05;;;;;;;3.97;2.08;;;;;15.70;98826.00;;;;5053324;28;20045;-67
2023/05/20 00:52:32;;;;;;;5.55;2.80;;;;;15.70;98827.00;;;;5052396;28;20049;-67
2023/05/20 00:54:59;;;;;;;8.90;2.95;;;;;15.70;98827.00;;;;5051412;28;20043;-67
2023/05/20 00:57:26;;;;;;;3.95;2.60;;;;;15.70;98826.00;;;;5052130;28;20041;-67
2023/05/20 00:59:53;;;;;;;3.42;2.05;;;;;15.70;98816.00;;;;5052028;28;20120;-67
2023/05/20 01:02:20;;;;;;;3.70;2.08;;;;;15.60;98819.00;;;;5052454;28;20048;-67
2023/05/20 01:04:47;;;;;;;5.20;2.00;;;;;15.50;98822.00;;;;5052136;28;20410;-67
2023/05/20 01:07:16;;;;;;;3.67;2.15;;;;;15.40;98820.00;;;;5050968;28;20040;-67
2023/05/20 01:09:43;;;;;;;3.80;2.10;;;;;15.40;98824.00;;;;5050783;28;20059;-68
2023/05/20 01:12:09;;;;;;;3.38;2.03;;;;;15.40;98817.00;;;;5050973;28;20387;-67
2023/05/20 01:14:45;;;;;;;3.15;2.60;;;;;15.40;98827.00;;;;5050710;28;20461;-68
2023/05/20 01:17:16;;;;;;;2.92;2.10;;;;;15.30;98820.00;;;;5050726;28;20044;-67
2023/05/20 01:19:47;;;;;;;5.07;2.30;;;;;15.30;98819.00;;;;5051755;28;20420;-68
2023/05/20 01:22:14;;;;;;;3.60;2.17;;;;;15.30;98817.00;;;;5050737;28;20099;-67
2023/05/20 01:24:48;;;;;;;4.15;2.22;;;;;15.20;98820.00;;;;5052006;28;20048;-67
2023/05/20 01:27:15;;;;;;;3.88;2.05;;;;;15.20;98825.00;;;;5050677;28;20075;-67
2023/05/20 01:29:42;;;;;;;3.17;2.08;;;;;15.20;98815.00;;;;5050802;28;20560;-67
2023/05/20 01:32:14;;;;;;;6.03;2.33;;;;;15.20;98816.00;;;;5050557;28;20065;-67
2023/05/20 01:34:42;;;;;;;4.95;2.03;;;;;15.10;98809.00;;;;5051841;28;20417;-67
2023/05/20 01:37:09;;;;;;;3.33;2.13;;;;;15.10;98804.00;;;;5051867;28;20363;-67
2023/05/20 01:39:40;;;;;;;4.28;1.90;;;;;15.00;98806.00;;;;5050645;28;20041;-66
2023/05/20 01:42:11;;;;;;;4.05;2.30;;;;;15.00;98807.00;;;;5052063;28;20045;-66
2023/05/20 01:44:38;;;;;;;2.92;2.10;;;;;14.90;98814.00;;;;5050524;28;20049;-67
2023/05/20 01:47:04;;;;;;;5.45;2.30;;;;;14.80;98810.00;;;;5051988;28;20037;-66
2023/05/20 01:49:31;;;;;;;4.18;2.15;;;;;14.80;98803.00;;;;5050292;28;20136;-68
2023/05/20 01:51:58;;;;;;;3.42;2.38;;;;;14.80;98808.00;;;;5034027;28;20144;-67
2023/05/20 01:54:25;;;;;;;4.25;2.20;;;;;14.80;98819.00;;;;5050237;28;20560;-67
2023/05/20 01:56:52;;;;;;;7.30;2.20;;;;;14.70;98815.00;;;;5052167;28;20041;-67
2023/05/20 01:59:20;;;;;;;4.00;2.47;;;;;14.70;98811.00;;;;5037947;28;20531;-67
2023/05/20 02:01:47;;;;;;;4.10;2.65;;;;;14.70;98803.00;;;;5037655;28;20076;-67
2023/05/20 02:04:14;;;;;;;3.05;2.15;;;;;14.70;98807.00;;;;5055290;28;20040;-67
2023/05/20 02:06:41;;;;;;;3.70;2.70;;;;;14.60;98806.00;;;;5037560;28;20051;-67
2023/05/20 02:09:07;;;;;;;3.20;2.42;;;;;14.60;98805.00;;;;5055441;28;20049;-67
2023/05/20 02:11:35;;;;;;;2.42;2.20;;;;;14.50;98805.00;;;;5054262;28;20041;-67
2023/05/20 02:14:01;;;;;;;4.03;2.40;;;;;14.50;98801.00;;;;5055010;28;20068;-67
2023/05/20 02:16:28;;;;;;;3.22;2.17;;;;;14.40;98809.00;;;;5053775;28;20037;-67
2023/05/20 02:18:57;;;;;;;4.60;2.53;;;;;14.40;98805.00;;;;5053512;28;20052;-67
2023/05/20 02:21:24;;;;;;;6.03;2.42;;;;;14.30;98801.00;;;;5053750;28;20045;-67
2023/05/20 02:23:52;;;;;;;4.78;2.38;;;;;14.30;98798.00;;;;5054744;28;20510;-67
2023/05/20 02:26:19;;;;;;;3.50;2.60;;;;;14.30;98804.00;;;;5053742;28;20044;-68
2023/05/20 02:28:49;;;;;;;4.68;2.85;;;;;14.30;98796.00;;;;5053512;28;20049;-67
2023/05/20 02:31:16;;;;;;;3.08;2.33;;;;;14.30;98805.00;;;;5037039;28;20045;-67
2023/05/20 02:33:43;;;;;;;3.40;2.40;;;;;14.20;98809.00;;;;5054693;28;20476;-67
2023/05/20 02:36:11;;;;;;;5.60;2.67;;;;;14.20;98807.00;;;;5053338;28;20080;-67
2023/05/20 02:38:37;;;;;;;4.15;2.13;;;;;14.20;98801.00;;;;5053544;28;20049;-67
2023/05/20 02:41:04;;;;;;;4.88;2.63;;;;;14.10;98801.00;;;;5053549;28;20049;-66
2023/05/20 02:43:32;;;;;;;3.55;2.45;;;;;14.10;98801.00;;;;5055003;28;20131;-66
2023/05/20 02:46:00;;;;;;;4.68;2.60;;;;;14.00;98800.00;;;;5037488;28;20075;-67
2023/05/20 02:48:27;;;;;;;6.03;2.83;;;;;14.00;98799.00;;;;5053513;28;20041;-65
2023/05/20 02:50:53;;;;;;;4.35;2.45;;;;;14.00;98791.00;;;;5053232;28;20045;-66
2023/05/20 02:53:20;;;;;;;4.50;2.60;;;;;13.90;98784.00;;;;5053560;28;20044;-66
2023/05/20 02:55:47;;;;;;;5.47;2.70;;;;;13.90;98786.00;;;;5054772;28;20045;-65
2023/05/20 02:58:14;;;;;;;4.07;2.65;;;;;13.90;98781.00;;;;5054724;28;20037;-66
2023/05/20 03:00:42;;;;;;;3.83;2.42;;;;;13.90;98780.00;;;;5054426;28;20126;-66
2023/05/20 03:03:09;;;;;;;4.53;2.33;;;;;13.80;98776.00;;;;5037916;28;20052;-66
2023/05/20 03:05:36;;;;;;;6.35;2.45;;;;;13.80;98768.00;;;;5054615;28;20049;-67
2023/05/20 03:08:08;;;;;;;4.15;2.60;;;;;13.80;98772.00;;;;5038377;28;20041;-66
2023/05/20 03:10:36;;;;;;;5.53;2.70;;;;;13.70;98761.00;;;;5056485;28;20076;-66
2023/05/20 03:13:08;;;;;;;6.55;2.95;;;;;13.70;98763.00;;;;5059483;28;20482;-67
2023/05/20 03:15:39;;;;;;;3.90;2.60;;;;;13.60;98764.00;;;;5045247;28;20049;-67
2023/05/20 03:18:09;;;;;;;3.25;2.85;;;;;13.60;98772.00;;;;5074604;28;20071;-70
2023/05/20 03:20:37;;;;;;;7.00;3.45;;;;;13.50;98766.00;;;;5072092;28;20033;-68
2023/05/20 03:23:05;;;;;;;19.73;12.15;;;;;13.50;98769.00;;;;5058367;28;20045;-66
2023/05/20 03:25:32;;;;;;;4.35;3.10;;;;;13.50;98765.00;;;;5052781;28;20116;-67
2023/05/20 03:27:59;;;;;;;9.00;3.90;;;;;13.50;98759.00;;;;5052637;28;20461;-67
2023/05/20 03:30:26;;;;;;;4.32;2.85;;;;;13.50;98758.00;;;;5052250;28;20049;-67
2023/05/20 03:32:56;;;;;;;4.35;2.70;;;;;13.50;98759.00;;;;5052657;28;20052;-67
2023/05/20 03:35:24;;;;;;;5.13;2.67;;;;;13.50;98761.00;;;;5052135;28;20053;-67
2023/05/20 03:37:52;;;;;;;6.40;3.05;;;;;13.50;98760.00;;;;5053727;28;20037;-67
2023/05/20 03:40:21;;;;;;;3.90;2.60;;;;;13.50;98760.00;;;;5052402;28;20052;-67
2023/05/20 03:42:49;;;;;;;3.45;2.85;;;;;13.50;98764.00;;;;5052307;28;20069;-66
2023/05/20 03:45:18;;;;;;;3.53;2.70;;;;;13.50;98763.00;;;;5052593;28;20056;-66
2023/05/20 03:48:03;;;;;;;4.15;2.95;;;;;13.60;98767.00;;;;5052374;28;20510;-67
2023/05/20 03:50:32;;;;;;;5.00;3.08;;;;;13.60;98755.00;;;;5052005;28;20509;-67
2023/05/20 03:52:59;;;;;;;3.75;2.92;;;;;13.70;98760.00;;;;5035748;28;20072;-68
2023/05/20 03:55:31;;;;;;;5.22;3.35;;;;;13.80;98764.00;;;;5036391;28;20045;-68
2023/05/20 03:58:00;;;;;;;7.10;4.05;;;;;13.70;98764.00;;;;5035682;28;20491;-68
2023/05/20 04:00:29;;;;;;;5.65;3.90;;;;;13.60;98770.00;;;;5052133;28;20045;-68
2023/05/20 04:02:57;;;;;;;3.97;3.20;;;;;13.70;98765.00;;;;5051844;28;20052;-66
2023/05/20 04:05:24;;;;;;;6.80;4.38;;;;;13.70;98766.00;;;;5053050;28;20045;-67
2023/05/20 04:07:50;;;;;;;7.18;4.03;;;;;13.70;98771.00;;;;5051778;28;20094;-67
2023/05/20 04:10:19;;;;;;;12.02;7.25;;;;;13.70;98759.00;;;;5051885;28;20098;-68
2023/05/20 04:12:46;;;;;;;9.00;5.40;;;;;13.80;98769.00;;;;5051888;28;20091;-67
2023/05/20 04:15:13;;;;;;;4.63;3.75;;;;;13.80;98771.00;;;;5052299;28;20045;-67
2023/05/20 04:17:54;;;;;;;5.20;3.33;;;;;13.90;98761.00;;;;5038067;28;20051;-67
2023/05/20 04:20:21;;;;;;;9.10;5.97;;;;;13.90;98765.00;;;;5051989;28;20103;-66
2023/05/20 04:22:49;;;;;;;6.65;3.70;;;;;13.90;98765.00;;;;5052293;28;20045;-67
2023/05/20 04:25:17;;;;;;;7.57;4.88;;;;;14.00;98763.00;;;;5052593;28;20045;-67
2023/05/20 04:27:44;;;;;;;7.35;3.58;;;;;14.00;98765.00;;;;5053693;28;20037;-66
2023/05/20 04:30:11;;;;;;;4.80;3.08;;;;;14.00;98761.00;;;;5052476;28;20045;-67
2023/05/20 04:32:40;;;;;;;6.85;3.90;;;;;14.00;98754.00;;;;5052570;28;20041;-67
2023/05/20 04:35:10;;;;;;;4.68;3.38;;;;;14.00;98760.00;;;;5058353;28;20041;-67
2023/05/20 04:37:41;;;;;;;5.70;3.30;;;;;14.00;98761.00;;;;5059472;28;20199;-69
2023/05/20 04:40:08;;;;;;;4.93;3.20;;;;;14.10;98755.00;;;;5054901;28;20448;-70
2023/05/20 04:42:36;;;;;;;4.68;3.45;;;;;14.20;98754.00;;;;5053202;28;20139;-69
2023/05/20 04:45:04;;;;;;;7.72;4.35;;;;;14.20;98747.00;;;;5052453;28;20073;-69
2023/05/20 04:47:37;;;;;;;8.60;4.88;;;;;14.10;98745.00;;;;5053198;28;20460;-70
2023/05/20 04:50:12;;;;;;;5.20;4.18;;;;;14.20;98747.00;;;;5052797;28;20045;-70
2023/05/20 04:52:42;;;;;;;6.85;3.70;;;;;14.20;98748.00;;;;5052802;28;20041;-69
2023/05/20 04:55:10;;;;;;;6.00;4.25;;;;;14.40;98755.00;;;;5056020;28;20090;-68
2023/05/20 04:57:40;;;;;;;5.93;3.63;;;;;14.40;98748.00;;;;5052621;28;20044;-68
2023/05/20 05:00:12;;;;;;;6.10;3.90;;;;;14.50;98749.00;;;;5052272;28;20102;-68
2023/05/20 05:02:39;;;;;;;4.50;3.08;;;;;14.40;98744.00;;;;5035260;28;20052;-70
2023/05/20 05:05:06;;;;;;;5.63;3.95;;;;;14.40;98742.00;;;;5051671;28;20139;-69
2023/05/20 05:07:33;;;;;;;4.25;3.47;;;;;14.40;98749.00;;;;5035632;28;20049;-68
2023/05/20 05:10:00;;;;;;;3.80;3.30;;;;;14.50;98743.00;;;;5053560;28;20041;-68
2023/05/20 05:12:29;;;;;;;8.55;6.03;;;;;14.60;98739.00;;;;5048600;28;20052;-68
2023/05/20 05:14:57;;;;;;;6.15;4.03;;;;;14.60;98738.00;;;;5062139;28;20502;-68
2023/05/20 05:17:24;;;;;;;5.47;3.17;;;;;14.70;98734.00;;;;5065439;28;20049;-68
2023/05/20 05:19:51;;;;;;;4.90;3.67;;;;;14.70;98739.00;;;;5060057;28;20059;-68
2023/05/20 05:22:18;;;;;;;5.00;3.90;;;;;14.80;98734.00;;;;5058513;28;20056;-69
2023/05/20 05:24:45;;;;;;;5.07;3.63;;;;;14.90;98729.00;;;;5059283;28;20133;-68
2023/05/20 05:27:11;;;;;;;4.18;3.47;;;;;15.00;98722.00;;;;5060450;28;20073;-68
2023/05/20 05:29:38;;;;;;;6.55;3.42;;;;;15.20;98724.00;;;;5059991;28;20502;-68
2023/05/20 05:32:05;;;;;;;6.55;3.30;;;;;15.30;98731.00;;;;5061409;28;20064;-69
2023/05/20 05:34:32;;;;;;;4.45;3.25;;;;;15.40;98733.00;;;;5049307;28;20141;-69
2023/05/20 05:36:58;;;;;;;5.75;3.80;;;;;15.50;98729.00;;;;5048537;28;20045;-69
2023/05/20 05:39:25;;;;;;;3.90;3.00;;;;;15.70;98717.00;;;;5064637;28;20596;-69
2023/05/20 05:41:53;;;;;;;5.13;3.33;;;;;15.70;98726.00;;;;5065408;28;20053;-69
2023/05/20 05:44:20;;;;;;;4.65;3.28;;;;;15.80;98711.00;;;;5066390;28;20048;-69
2023/05/20 05:46:47;;;;;;;5.22;3.63;;;;;15.90;98716.00;;;;5064437;28;20045;-69
2023/05/20 05:49:15;;;;;;;5.70;4.10;;;;;16.10;98718.00;;;;5048138;28;20064;-69
2023/05/20 05:51:42;;;;;;;6.60;4.30;;;;;16.40;98711.00;;;;5066700;28;20049;-69
2023/05/20 05:54:09;;;;;;;6.57;4.55;;;;;16.40;98709.00;;;;5067202;28;20063;-70
2023/05/20 05:56:36;;;;;;;4.18;3.78;;;;;16.40;98710.00;;;;5065007;28;20121;-70
2023/05/20 05:59:03;;;;;;;6.68;3.78;;;;;16.50;98712.00;;;;5046186;28;20048;-68
2023/05/20 06:01:30;;;;;;;4.80;3.30;;;;;16.40;98713.00;;;;5044602;28;20102;-68
2023/05/20 06:03:58;;;;;;;6.13;3.90;;;;;16.50;98712.00;;;;5056917;28;20045;-68
2023/05/20 06:06:25;;;;;;;6.57;3.60;;;;;16.40;98719.00;;;;5055711;28;20052;-68
2023/05/20 06:08:52;;;;;;;6.63;3.47;;;;;16.40;98710.00;;;;5039388;28;20049;-68
2023/05/20 06:11:20;;;;;;;5.32;3.42;;;;;16.60;98707.00;;;;5056397;28;20045;-68
2023/05/20 06:13:47;;;;;;;9.35;6.93;;;;;16.70;98698.00;;;;5057168;28;20041;-68
2023/05/20 06:16:13;;;;;;;9.48;6.40;;;;;16.80;98707.00;;;;5057348;28;20136;-69
2023/05/20 06:18:40;;;;;;;7.90;4.22;;;;;16.90;98702.00;;;;5058578;28;20048;-69
2023/05/20 06:21:07;;;;;;;4.57;3.72;;;;;17.00;98707.00;;;;5042873;28;20049;-69
2023/05/20 06:23:34;;;;;;;4.40;3.30;;;;;16.90;98707.00;;;;5059323;28;20060;-69
2023/05/20 06:26:04;;;;;;;4.95;3.60;;;;;16.80;98709.00;;;;5058950;28;20076;-70
2023/05/20 06:28:31;;;;;;;4.32;3.78;;;;;16.70;98693.00;;;;5058792;28;20041;-68
2023/05/20 06:30:57;;;;;;;3.63;3.28;;;;;16.70;98697.00;;;;5061661;28;20045;-69
2023/05/20 06:33:27;;;;;;;5.28;3.65;;;;;16.70;98692.00;;;;5057275;28;20060;-68
2023/05/20 06:36:00;;;;;;;4.10;3.40;;;;;16.70;98690.00;;;;5056343;28;20047;-69
2023/05/20 06:38:27;;;;;;;5.07;3.75;;;;;16.80;98696.00;;;;5055952;28;20537;-68
2023/05/20 06:40:54;;;;;;;3.90;3.50;;;;;17.00;98697.00;;;;5055743;28;20045;-68
2023/05/20 06:43:21;;;;;;;7.40;3.63;;;;;17.20;98702.00;;;;5057000;28;20106;-68
2023/05/20 06:46:02;;;;;;;4.05;3.22;;;;;17.30;98694.00;;;;5055942;28;20051;-67
2023/05/20 06:48:34;;;;;;;4.65;3.83;;;;;17.40;98698.00;;;;5057091;28;20036;-68
2023/05/20 06:51:01;;;;;;;6.50;4.15;;;;;17.40;98703.00;;;;5056288;28;20049;-67
2023/05/20 06:53:28;;;;;;;3.95;3.50;;;;;17.40;98696.00;;;;5039982;28;20098;-68
2023/05/20 06:55:55;;;;;;;4.93;4.05;;;;;17.60;98694.00;;;;5055422;28;20456;-68
2023/05/20 06:58:22;;;;;;;6.40;4.13;;;;;17.50;98699.00;;;;5056375;28;20517;-68
2023/05/20 07:00:48;;;;;;;5.35;4.15;;;;;17.60;98703.00;;;;5057255;28;20132;-67
2023/05/20 07:03:15;;;;;;;5.63;4.43;;;;;17.60;98699.00;;;;5057001;28;20049;-69
2023/05/20 07:05:43;;;;;;;5.65;3.97;;;;;17.60;98692.00;;;;5055688;28;20049;-69
2023/05/20 07:08:10;;;;;;;7.47;4.10;;;;;17.50;98691.00;;;;5056479;28;20028;-69
2023/05/20 07:10:37;;;;;;;5.95;4.20;;;;;17.40;98689.00;;;;5054276;28;20048;-69
2023/05/20 07:13:04;;;;;;;5.43;4.20;;;;;17.50;98681.00;;;;5055759;28;20080;-68
2023/05/20 07:15:31;;;;;;;6.53;4.65;;;;;17.60;98677.00;;;;5059139;28;20051;-69
2023/05/20 07:17:58;;;;;;;6.63;4.50;;;;;17.70;98690.00;;;;5077183;28;20059;-68
2023/05/20 07:20:25;;;;;;;6.10;4.43;;;;;17.70;98689.00;;;;5074528;28;20059;-67
2023/05/20 07:22:52;;;;;;;5.38;4.28;;;;;17.80;98684.00;;;;5057973;28;20140;-67
2023/05/20 07:25:37;;;;;;;4.85;4.20;;;;;17.80;98693.00;;;;5056117;28;20077;-68
2023/05/20 07:28:04;;;;;;;6.20;4.30;;;;;17.80;98684.00;;;;5056353;28;20049;-68
2023/05/20 07:30:31;;;;;;;5.40;4.45;;;;;17.90;98689.00;;;;5056158;28;20060;-67
2023/05/20 07:33:13;;;;;;;6.90;4.50;;;;;17.90;98694.00;;;;5041123;28;20045;-67
2023/05/20 07:35:40;;;;;;;7.63;4.85;;;;;17.90;98687.00;;;;5054927;28;20075;-67
2023/05/20 07:38:06;;;;;;;7.20;4.55;;;;;18.00;98681.00;;;;5054675;28;20141;-67
2023/05/20 07:40:35;;;;;;;6.20;4.30;;;;;17.80;98674.00;;;;5054764;28;20053;-68
2023/05/20 07:43:02;;;;;;;8.50;5.22;;;;;17.80;98679.00;;;;5038083;28;20076;-68
2023/05/20 07:45:31;;;;;;;9.25;7.90;;;;;17.70;98681.00;;;;5054294;28;20060;-67
2023/05/20 07:47:58;;;;;;;8.30;6.10;;;;;17.70;98685.00;;;;5054064;28;20560;-67
2023/05/20 07:50:25;;;;;;;5.63;4.63;;;;;17.70;98675.00;;;;5053615;28;20426;-68
2023/05/20 07:52:52;;;;;;;6.88;4.97;;;;;17.70;98678.00;;;;5055719;28;20099;-67
2023/05/20 07:55:24;;;;;;;6.43;4.40;;;;;17.80;98674.00;;;;5036822;28;20104;-67
2023/05/20 07:57:51;;;;;;;6.03;4.40;;;;;17.80;98671.00;;;;5052045;28;20509;-67
2023/05/20 08:00:18;;;;;;;6.70;4.65;;;;;17.90;98683.00;;;;5051768;28;20053;-67
2023/05/20 08:02:45;;;;;;;6.72;4.75;;;;;17.80;98678.00;;;;5052329;28;20414;-68
2023/05/20 08:05:16;;;;;;;7.70;5.43;;;;;17.70;98672.00;;;;5052034;28;20060;-66
2023/05/20 08:07:44;;;;;;;8.90;5.13;;;;;17.70;98665.00;;;;5035760;28;20048;-66
2023/05/20 08:10:12;;;;;;;7.47;4.97;;;;;17.90;98673.00;;;;5052014;28;20068;-66
2023/05/20 08:12:40;;;;;;;5.72;4.55;;;;;18.00;98674.00;;;;5052355;28;20135;-67
2023/05/20 08:15:07;;;;;;;5.43;4.90;;;;;18.10;98670.00;;;;5052016;28;20110;-66
2023/05/20 08:17:34;;;;;;;8.65;5.78;;;;;18.10;98671.00;;;;5052634;28;20084;-68
2023/05/20 08:20:01;;;;;;;7.13;5.43;;;;;18.10;98661.00;;;;5054280;28;20092;-68
2023/05/20 08:22:28;;;;;;;5.63;4.60;;;;;18.10;98671.00;;;;5054428;28;20139;-68
2023/05/20 08:24:55;;;;;;;6.68;5.18;;;;;18.20;98663.00;;;;5036570;28;20060;-68
2023/05/20 08:27:21;;;;;;;6.30;4.50;;;;;18.40;98662.00;;;;5052677;28;20053;-67
2023/05/20 08:29:48;;;;;;;5.93;4.82;;;;;18.40;98667.00;;;;5053032;28;20044;-68
2023/05/20 08:32:15;;;;;;;8.68;5.03;;;;;18.30;98667.00;;;;5052844;28;20053;-68
2023/05/20 08:34:43;;;;;;;9.18;5.60;;;;;18.30;98669.00;;;;5054905;28;20044;-68
2023/05/20 08:37:10;;;;;;;5.72;4.65;;;;;18.30;98677.00;;;;5052684;28;20041;-68
2023/05/20 08:39:37;;;;;;;7.30;5.00;;;;;18.40;98679.00;;;;5052524;28;20094;-69
2023/05/20 08:42:06;;;;;;;7.70;5.13;;;;;18.30;98679.00;;;;5051974;28;20466;-69
2023/05/20 08:44:34;;;;;;;6.20;4.85;;;;;18.20;98678.00;;;;5052746;28;20049;-67
2023/05/20 08:47:03;;;;;;;6.88;5.30;;;;;18.10;98680.00;;;;5053447;28;20100;-68
2023/05/20 08:49:31;;;;;;;6.28;5.50;;;;;18.00;98678.00;;;;5053760;28;20037;-68
2023/05/20 08:51:59;;;;;;;5.43;4.93;;;;;18.00;98672.00;;;;5037834;28;20049;-68
2023/05/20 08:54:51;;;;;;;6.57;5.72;;;;;18.10;98675.00;;;;5054397;28;20116;-68
2023/05/20 08:57:20;;;;;;;7.18;5.03;;;;;18.30;98673.00;;;;5052574;28;20083;-69
2023/05/20 08:59:46;;;;;;;7.45;5.40;;;;;18.40;98670.00;;;;5052487;28;20045;-68
2023/05/20 09:02:13;;;;;;;8.25;5.65;;;;;18.30;98671.00;;;;5051726;28;20077;-68
2023/05/20 09:04:40;;;;;;;5.97;5.38;;;;;18.30;98673.00;;;;5051594;28;20051;-67
2023/05/20 09:07:07;;;;;;;7.25;5.60;;;;;18.20;98671.00;;;;5051887;28;20402;-68
2023/05/20 09:09:34;;;;;;;5.45;4.95;;;;;18.20;98672.00;;;;5056451;28;20064;-67
2023/05/20 09:12:02;;;;;;;7.30;5.68;;;;;18.20;98666.00;;;;5058837;28;20429;-67
2023/05/20 09:14:30;;;;;;;7.25;5.22;;;;;18.40;98664.00;;;;5053133;28;20045;-66
2023/05/20 09:16:57;;;;;;;6.70;5.47;;;;;18.60;98656.00;;;;5053808;28;20051;-67
2023/05/20 09:19:24;;;;;;;6.82;5.25;;;;;18.80;98650.00;;;;5054894;28;20124;-68
2023/05/20 09:21:54;;;;;;;9.80;5.45;;;;;19.10;98643.00;;;;5053716;28;20040;-67
2023/05/20 09:24:25;;;;;;;9.65;5.55;;;;;19.40;98640.00;;;;5054136;28;20049;-67
2023/05/20 09:26:51;;;;;;;5.45;4.93;;;;;19.60;98639.00;;;;5038543;28;20077;-67
2023/05/20 09:29:20;;;;;;;7.22;5.68;;;;;19.70;98649.00;;;;5056092;28;20093;-67
2023/05/20 09:31:48;;;;;;;7.88;5.47;;;;;19.70;98646.00;;;;5054112;28;20063;-67
2023/05/20 09:34:16;;;;;;;5.28;4.78;;;;;19.50;98644.00;;;;5053940;28;20045;-69
2023/05/20 09:36:44;;;;;;;7.38;6.13;;;;;19.50;98638.00;;;;5055653;28;20067;-67
2023/05/20 09:39:15;;;;;;;5.95;5.45;;;;;19.40;98640.00;;;;5054770;28;20043;-68
2023/05/20 09:42:05;;;;;;;5.25;4.75;;;;;19.50;98648.00;;;;5053544;28;20449;-68
2023/05/20 09:44:33;;;;;;;7.20;5.38;;;;;19.50;98642.00;;;;5054739;28;20045;-68
2023/05/20 09:47:01;;;;;;;6.75;5.93;;;;;19.20;98633.00;;;;5054164;28;20049;-67
2023/05/20 09:49:31;;;;;;;6.80;5.28;;;;;19.40;98632.00;;;;5052714;28;20048;-67
2023/05/20 09:52:00;;;;;;;5.47;4.75;;;;;19.50;98643.00;;;;5034797;28;20076;-67
2023/05/20 09:54:27;;;;;;;6.68;5.43;;;;;19.50;98651.00;;;;5051110;28;20045;-67
2023/05/20 09:56:58;;;;;;;6.70;5.25;;;;;19.50;98644.00;;;;5052152;28;20052;-64
2023/05/20 09:59:26;;;;;;;9.07;5.78;;;;;19.60;98639.00;;;;5050558;28;20133;-65
2023/05/20 10:01:52;;;;;;;6.55;5.22;;;;;19.70;98633.00;;;;5051085;28;20132;-65
2023/05/20 10:04:22;;;;;;;7.47;5.65;;;;;19.90;98636.00;;;;5052785;28;20092;-66
2023/05/20 10:07:00;;;;;;;7.80;4.88;;;;;20.00;98631.00;;;;5052525;28;20055;-66
2023/05/20 10:09:55;;;;;;;9.23;5.72;;;;;20.20;98631.00;;;;5052450;28;20088;-62
2023/05/20 10:12:24;;;;;;;9.73;5.68;;;;;20.30;98633.00;;;;5051881;28;20085;-64
2023/05/20 10:15:08;;;;;;;7.43;5.38;;;;;20.10;98623.00;;;;5051490;28;20051;-64
2023/05/20 10:18:00;;;;;;;7.72;6.05;;;;;20.00;98635.00;;;;5051930;28;20514;-65
2023/05/20 10:20:27;;;;;;;6.32;5.28;;;;;20.00;98632.00;;;;5055267;28;20045;-64
2023/05/20 10:22:58;;;;;;;6.65;5.57;;;;;20.00;98627.00;;;;5056981;28;20124;-64
2023/05/20 10:25:28;;;;;;;6.75;5.45;;;;;20.10;98610.00;;;;5055010;28;20041;-64
2023/05/20 10:28:07;;;;;;;6.95;5.40;;;;;20.10;98618.00;;;;5057153;28;20037;-64
2023/05/20 10:30:34;;;;;;;7.13;5.13;;;;;20.20;98621.00;;;;5056203;28;20048;-64
2023/05/20 10:33:04;;;;;;;6.80;5.68;;;;;20.10;98616.00;;;;5055423;28;20127;-64
2023/05/20 10:35:31;;;;;;;6.60;5.82;;;;;20.20;98608.00;;;;5056596;28;20045;-64
2023/05/20 10:38:10;;;;;;;7.05;5.20;;;;;20.30;98611.00;;;;5054351;28;20045;-67
2023/05/20 10:40:37;;;;;;;10.88;5.72;;;;;20.40;98609.00;;;;5055161;28;20498;-64
2023/05/20 10:43:13;;;;;;;5.85;5.25;;;;;20.40;98612.00;;;;5054153;28;20049;-63
2023/05/20 10:45:54;;;;;;;6.70;5.40;;;;;20.50;98596.00;;;;5053757;28;20053;-63
2023/05/20 10:48:32;;;;;;;6.38;5.43;;;;;20.70;98601.00;;;;5055193;28;20818;-63
2023/05/20 10:51:03;;;;;;;7.70;6.32;;;;;21.00;98610.00;;;;5053548;28;20044;-63
2023/05/20 10:53:38;;;;;;;6.85;6.10;;;;;21.10;98604.00;;;;5055166;28;20094;-63
2023/05/20 10:56:15;;;;;;;7.15;5.90;;;;;21.30;98604.00;;;;5055021;28;20071;-65
2023/05/20 10:58:42;;;;;;;6.85;5.95;;;;;21.10;98607.00;;;;5054606;28;20132;-63
2023/05/20 11:01:09;;;;;;;7.13;5.07;;;;;21.00;98598.00;;;;5053007;28;20099;-63
2023/05/20 11:03:37;;;;;;;7.90;6.40;;;;;21.00;98585.00;;;;5054366;28;20045;-63
2023/05/20 11:06:14;;;;;;;6.32;5.55;;;;;21.30;98591.00;;;;5054576;28;20041;-64
2023/05/20 11:08:44;;;;;;;7.95;5.50;;;;;21.20;98584.00;;;;5054566;28;20048;-63
2023/05/20 11:11:12;;;;;;;8.43;5.55;;;;;21.30;98588.00;;;;5055328;28;20045;-65
2023/05/20 11:13:40;;;;;;;7.80;5.20;;;;;21.10;98590.00;;;;5059089;28;20468;-66
2023/05/20 11:16:06;;;;;;;8.40;6.28;;;;;20.90;98594.00;;;;5056323;28;20053;-63
2023/05/20 11:18:33;;;;;;;8.60;5.43;;;;;20.80;98599.00;;;;5054328;28;20567;-64
2023/05/20 11:21:00;;;;;;;7.78;6.07;;;;;20.90;98590.00;;;;5054947;28;20063;-64
2023/05/20 11:23:28;;;;;;;13.65;8.20;;;;;21.00;98586.00;;;;5056488;28;20075;-63
2023/05/20 11:25:56;;;;;;;11.63;7.00;;;;;21.30;98590.00;;;;5055750;28;20052;-64
2023/05/20 11:28:23;;;;;;;7.85;5.95;;;;;21.20;98586.00;;;;5055476;28;20049;-64
2023/05/20 11:30:51;;;;;;;7.05;6.07;;;;;21.00;98571.00;;;;5052857;28;20566;-64
2023/05/20 11:33:18;;;;;;;5.93;5.25;;;;;21.10;98583.00;;;;5056125;28;20037;-64
2023/05/20 11:35:48;;;;;;;6.85;6.10;;;;;21.20;98587.00;;;;5055242;28;20380;-64
2023/05/20 11:38:15;;;;;;;6.13;5.60;;;;;21.00;98587.00;;;;5054477;28;20055;-64
2023/05/20 11:40:45;;;;;;;5.93;5.32;;;;;20.80;98578.00;;;;5053652;28;20043;-64
2023/05/20 11:43:17;;;;;;;9.48;5.50;;;;;20.50;98577.00;;;;5053827;28;20049;-64
2023/05/20 11:45:53;;;;;;;6.93;6.22;;;;;20.50;98568.00;;;;5053700;28;20045;-64
2023/05/20 11:48:20;;;;;;;6.40;5.80;;;;;20.60;98569.00;;;;5053791;28;20056;-64
2023/05/20 11:50:47;;;;;;;7.40;6.07;;;;;20.90;98573.00;;;;5053460;28;20045;-65
2023/05/20 11:53:19;;;;;;;7.40;6.50;;;;;21.10;98563.00;;;;5053343;28;20060;-64
2023/05/20 11:55:57;;;;;;;7.43;6.25;;;;;21.30;98552.00;;;;5053352;28;20076;-64
2023/05/20 11:58:25;;;;;;;6.93;5.90;;;;;21.70;98556.00;;;;5053227;28;20059;-64
2023/05/20 12:00:52;;;;;;;7.03;6.43;;;;;21.80;98558.00;;;;5051813;28;20399;-64
2023/05/20 12:03:31;;;;;;;6.25;5.65;;;;;21.80;98561.00;;;;5051959;28;20521;-63
2023/05/20 12:06:00;;;;;;;6.22;5.60;;;;;21.90;98556.00;;;;5053246;28;20049;-64
2023/05/20 12:08:27;;;;;;;7.75;6.25;;;;;22.00;98549.00;;;;5053268;28;20127;-63
2023/05/20 12:10:53;;;;;;;9.63;7.40;;;;;22.10;98549.00;;;;5052902;28;20383;-64
2023/05/20 12:13:22;;;;;;;12.38;7.78;;;;;22.40;98557.00;;;;5052990;28;20048;-64
2023/05/20 12:15:48;;;;;;;7.47;6.43;;;;;22.40;98558.00;;;;5051822;28;20051;-64
2023/05/20 12:18:15;;;;;;;8.05;5.80;;;;;22.20;98568.00;;;;5053113;28;20051;-64
2023/05/20 12:20:41;;;;;;;7.00;6.30;;;;;22.00;98546.00;;;;5052757;28;20052;-64
2023/05/20 12:23:08;;;;;;;7.63;5.88;;;;;21.90;98535.00;;;;5052842;28;20055;-64
2023/05/20 12:25:34;;;;;;;7.38;5.60;;;;;21.70;98534.00;;;;5051302;28;20140;-64